Charlottesville, VA (22905)

4:42 AM EST on March 04, 2015 (GMT -0500)
Charlottesville 2W | Change Station
CLOSE
Current Station
Personal Weather Station
Location: Charlottesville, VA
Elevation: 866 ft
Nearby Weather Stations
Active Advisory: Winter Storm Watch Active Notice: Public Information Statement

Elev 866 ft 38.03 °N, 78.52 °W | Updated 47 seconds ago

Overcast
Overcast
38.0 °F
Feels Like 38 °F
N
0.0
Wind Variable Wind from North
Gusts 0.0 mph

Today
High -- | Low -- °F
--% Chance of Precip.
Yesterday
High -- | Low -- °F
Precip. -- in
6:41 AM 6:10 PM
Waxing Gibbous, 98% visible
Pressure 29.83 in
Visibility 8.0 miles
Clouds Mostly Cloudy 7000 ft
Overcast 9000 ft
Windchill 38 °F
Dew Point 36 °F
Humidity 94%
Rainfall 0.00 in
Snow Depth Not available.
UV 0 out of 12
Pollen .60 out of 12
Air Quality Not available.
Flu Activity Not available.
METAR KCHO 040853Z AUTO 21007KT 8SM BKN070 OVC090 04/02 A2982 RMK AO2 SLP100 T00390022 56017

More Conditions Fewer Conditions

Pressure 29.83 in
Visibility 8.0 miles
Clouds Mostly Cloudy 7000 ft
Overcast 9000 ft
Windchill 38 °F
Dew Point 36 °F
Humidity 94%
Rainfall 0.00 in
Snow Depth Not available.
UV 0 out of 12
Pollen .60 out of 12
Air Quality Not available.
Flu Activity Not available.
METAR KCHO 040853Z AUTO 21007KT 8SM BKN070 OVC090 04/02 A2982 RMK AO2 SLP100 T00390022 56017

More Conditions Fewer Conditions

10-Day Weather Forecast

Almanac

Astronomy

Mar. 04, 2015 Rise Set
Actual Time
Civil Twilight
Nautical Twilight
Astronomical Twilight
Moon
Length of Visible Light
Length of Day
Tomorrow will be .
, % of the Moon is Illuminated

Today's Extremes

State Highs State Lows

Community

WunderPhotos

Upload Photos

1,802,425 photos uploaded!

WunderBlogs® & News

Nearby

Air Quality

  Air Quality AQ Index Pollutant
Not available.

Snow Depth

Station Depth Elevation

Earthquake Activity

City Distance Mag. Time & Date
Minimum magnitude displayed is 2.5.

Coastal Water Temperatures

Place Temperature

Nearby Weather Stations

Winter Storm Watch
Statement as of 1:57 AM EST on March 04, 2015

... Winter Storm Watch remains in effect from late tonight through
Thursday evening...

* locations... central Virginia.

* Hazard types... snow... mixed with sleet.

* Timing... rain changing to snow and sleet Wednesday night. Snow
and sleet may be heavy at times Thursday.

* Impacts... roads will be snow covered... making travel
potentially dangerous.

* Winds... northwest around 10 mph.

* Temperatures... around 30 degrees.

Precautionary/preparedness actions...

A Winter Storm Watch means there is a potential for significant
snow... sleet... or ice accumulations that may impact travel.
Continue to monitor the latest forecasts.



Jackson/ads